sensor_id;sensor_type;location;lat;lon;timestamp;P1;durP1;ratioP1;P2;durP2;ratioP2
4909;SDS011;2470;49.868;8.660;2022-12-11T00:00:16;29.90;;;9.93;;
4909;SDS011;2470;49.868;8.660;2022-12-11T00:02:42;23.33;;;11.70;;
4909;SDS011;2470;49.868;8.660;2022-12-11T00:05:08;23.20;;;10.83;;
4909;SDS011;2470;49.868;8.660;2022-12-11T00:07:33;19.77;;;9.90;;
4909;SDS011;2470;49.868;8.660;2022-12-11T00:09:59;26.57;;;10.47;;
4909;SDS011;2470;49.868;8.660;2022-12-11T00:12:25;19.70;;;9.70;;
4909;SDS011;2470;49.868;8.660;2022-12-11T00:14:50;26.90;;;9.17;;
4909;SDS011;2470;49.868;8.660;2022-12-11T00:17:16;16.30;;;8.33;;
4909;SDS011;2470;49.868;8.660;2022-12-11T00:19:41;22.93;;;10.90;;
4909;SDS011;2470;49.868;8.660;2022-12-11T00:22:07;20.27;;;9.03;;
4909;SDS011;2470;49.868;8.660;2022-12-11T00:24:32;24.10;;;10.00;;
4909;SDS011;2470;49.868;8.660;2022-12-11T00:26:58;26.30;;;11.13;;
4909;SDS011;2470;49.868;8.660;2022-12-11T00:29:24;19.37;;;10.33;;
4909;SDS011;2470;49.868;8.660;2022-12-11T00:31:49;24.37;;;11.30;;
4909;SDS011;2470;49.868;8.660;2022-12-11T00:34:15;18.50;;;10.43;;
4909;SDS011;2470;49.868;8.660;2022-12-11T00:36:40;19.33;;;10.77;;
4909;SDS011;2470;49.868;8.660;2022-12-11T00:39:06;19.77;;;9.20;;
4909;SDS011;2470;49.868;8.660;2022-12-11T00:41:31;25.40;;;11.93;;
4909;SDS011;2470;49.868;8.660;2022-12-11T00:43:57;25.43;;;9.70;;
4909;SDS011;2470;49.868;8.660;2022-12-11T00:46:23;13.23;;;8.20;;
4909;SDS011;2470;49.868;8.660;2022-12-11T00:48:48;19.90;;;8.97;;
4909;SDS011;2470;49.868;8.660;2022-12-11T00:51:15;19.80;;;9.43;;
4909;SDS011;2470;49.868;8.660;2022-12-11T00:53:41;30.07;;;11.10;;
4909;SDS011;2470;49.868;8.660;2022-12-11T00:56:14;25.47;;;9.40;;
4909;SDS011;2470;49.868;8.660;2022-12-11T00:58:42;25.13;;;12.00;;
4909;SDS011;2470;49.868;8.660;2022-12-11T01:01:08;26.83;;;10.43;;
4909;SDS011;2470;49.868;8.660;2022-12-11T01:03:35;15.40;;;8.40;;
4909;SDS011;2470;49.868;8.660;2022-12-11T01:06:01;22.67;;;10.47;;
4909;SDS011;2470;49.868;8.660;2022-12-11T01:08:27;21.13;;;11.07;;
4909;SDS011;2470;49.868;8.660;2022-12-11T01:10:59;21.43;;;10.67;;
4909;SDS011;2470;49.868;8.660;2022-12-11T01:13:33;19.43;;;10.70;;
4909;SDS011;2470;49.868;8.660;2022-12-11T01:15:58;12.47;;;8.10;;
4909;SDS011;2470;49.868;8.660;2022-12-11T01:18:24;21.20;;;9.43;;
4909;SDS011;2470;49.868;8.660;2022-12-11T01:20:50;18.60;;;8.80;;
4909;SDS011;2470;49.868;8.660;2022-12-11T01:23:16;27.47;;;9.90;;
4909;SDS011;2470;49.868;8.660;2022-12-11T01:25:42;30.90;;;13.30;;
4909;SDS011;2470;49.868;8.660;2022-12-11T01:28:08;32.13;;;11.90;;
4909;SDS011;2470;49.868;8.660;2022-12-11T01:30:34;33.03;;;12.73;;
4909;SDS011;2470;49.868;8.660;2022-12-11T01:33:00;28.93;;;10.40;;
4909;SDS011;2470;49.868;8.660;2022-12-11T01:35:26;24.40;;;10.07;;
4909;SDS011;2470;49.868;8.660;2022-12-11T01:37:52;20.93;;;11.00;;
4909;SDS011;2470;49.868;8.660;2022-12-11T01:40:18;20.73;;;11.73;;
4909;SDS011;2470;49.868;8.660;2022-12-11T01:42:44;22.17;;;11.10;;
4909;SDS011;2470;49.868;8.660;2022-12-11T01:47:59;33.87;;;13.37;;
4909;SDS011;2470;49.868;8.660;2022-12-11T01:50:29;21.17;;;13.00;;
4909;SDS011;2470;49.868;8.660;2022-12-11T01:52:58;24.43;;;11.60;;
4909;SDS011;2470;49.868;8.660;2022-12-11T01:55:25;21.67;;;11.37;;
4909;SDS011;2470;49.868;8.660;2022-12-11T01:57:50;19.53;;;9.67;;
4909;SDS011;2470;49.868;8.660;2022-12-11T02:00:17;26.67;;;11.23;;
4909;SDS011;2470;49.868;8.660;2022-12-11T02:02:44;22.70;;;10.67;;
4909;SDS011;2470;49.868;8.660;2022-12-11T02:05:10;20.20;;;9.87;;
4909;SDS011;2470;49.868;8.660;2022-12-11T02:07:40;20.37;;;8.73;;
4909;SDS011;2470;49.868;8.660;2022-12-11T02:10:13;17.77;;;9.77;;
4909;SDS011;2470;49.868;8.660;2022-12-11T02:12:46;24.00;;;9.40;;
4909;SDS011;2470;49.868;8.660;2022-12-11T02:17:53;37.23;;;12.07;;
4909;SDS011;2470;49.868;8.660;2022-12-11T02:20:41;18.20;;;8.77;;
4909;SDS011;2470;49.868;8.660;2022-12-11T02:23:32;30.30;;;10.37;;
4909;SDS011;2470;49.868;8.660;2022-12-11T02:29:04;23.27;;;11.17;;
4909;SDS011;2470;49.868;8.660;2022-12-11T02:34:02;22.17;;;9.03;;
4909;SDS011;2470;49.868;8.660;2022-12-11T02:36:38;27.87;;;9.67;;
4909;SDS011;2470;49.868;8.660;2022-12-11T02:39:06;24.63;;;10.23;;
4909;SDS011;2470;49.868;8.660;2022-12-11T02:41:36;22.60;;;10.20;;
4909;SDS011;2470;49.868;8.660;2022-12-11T02:44:06;19.10;;;10.17;;
4909;SDS011;2470;49.868;8.660;2022-12-11T02:46:34;23.27;;;12.13;;
4909;SDS011;2470;49.868;8.660;2022-12-11T02:49:01;25.33;;;10.43;;
4909;SDS011;2470;49.868;8.660;2022-12-11T02:51:31;24.80;;;10.00;;
4909;SDS011;2470;49.868;8.660;2022-12-11T02:53:59;21.70;;;10.43;;
4909;SDS011;2470;49.868;8.660;2022-12-11T02:56:32;17.20;;;9.33;;
4909;SDS011;2470;49.868;8.660;2022-12-11T02:59:14;31.23;;;11.03;;
4909;SDS011;2470;49.868;8.660;2022-12-11T03:01:45;17.30;;;8.77;;
4909;SDS011;2470;49.868;8.660;2022-12-11T03:04:11;16.77;;;9.30;;
4909;SDS011;2470;49.868;8.660;2022-12-11T03:06:41;17.80;;;8.97;;
4909;SDS011;2470;49.868;8.660;2022-12-11T03:09:11;21.23;;;9.83;;
4909;SDS011;2470;49.868;8.660;2022-12-11T03:11:37;24.13;;;10.30;;
4909;SDS011;2470;49.868;8.660;2022-12-11T03:14:02;14.47;;;8.33;;
4909;SDS011;2470;49.868;8.660;2022-12-11T03:16:35;29.90;;;11.90;;
4909;SDS011;2470;49.868;8.660;2022-12-11T03:22:02;18.63;;;9.33;;
4909;SDS011;2470;49.868;8.660;2022-12-11T03:24:41;16.30;;;8.60;;
4909;SDS011;2470;49.868;8.660;2022-12-11T03:27:16;22.93;;;9.33;;
4909;SDS011;2470;49.868;8.660;2022-12-11T03:30:04;20.37;;;10.50;;
4909;SDS011;2470;49.868;8.660;2022-12-11T03:32:31;21.37;;;10.60;;
4909;SDS011;2470;49.868;8.660;2022-12-11T03:35:04;19.83;;;10.17;;
4909;SDS011;2470;49.868;8.660;2022-12-11T03:37:38;28.23;;;10.83;;
4909;SDS011;2470;49.868;8.660;2022-12-11T03:40:07;25.20;;;11.47;;
4909;SDS011;2470;49.868;8.660;2022-12-11T03:42:37;19.90;;;10.33;;
4909;SDS011;2470;49.868;8.660;2022-12-11T03:45:04;18.70;;;10.67;;
4909;SDS011;2470;49.868;8.660;2022-12-11T03:47:32;33.53;;;12.93;;
4909;SDS011;2470;49.868;8.660;2022-12-11T03:49:58;20.13;;;10.07;;
4909;SDS011;2470;49.868;8.660;2022-12-11T03:52:28;23.03;;;10.10;;
4909;SDS011;2470;49.868;8.660;2022-12-11T03:54:56;24.47;;;10.17;;
4909;SDS011;2470;49.868;8.660;2022-12-11T03:57:25;23.00;;;9.80;;
4909;SDS011;2470;49.868;8.660;2022-12-11T03:59:54;23.30;;;11.97;;
4909;SDS011;2470;49.868;8.660;2022-12-11T04:02:20;22.47;;;10.93;;
4909;SDS011;2470;49.868;8.660;2022-12-11T04:04:46;30.73;;;9.70;;
4909;SDS011;2470;49.868;8.660;2022-12-11T04:07:11;26.90;;;12.10;;
4909;SDS011;2470;49.868;8.660;2022-12-11T04:09:37;19.90;;;11.07;;
4909;SDS011;2470;49.868;8.660;2022-12-11T04:12:02;25.33;;;11.33;;
4909;SDS011;2470;49.868;8.660;2022-12-11T04:14:28;17.40;;;9.93;;
4909;SDS011;2470;49.868;8.660;2022-12-11T04:17:12;24.67;;;13.60;;
4909;SDS011;2470;49.868;8.660;2022-12-11T04:19:58;25.27;;;10.77;;
4909;SDS011;2470;49.868;8.660;2022-12-11T04:22:42;22.50;;;10.50;;
4909;SDS011;2470;49.868;8.660;2022-12-11T04:25:26;22.67;;;10.47;;
4909;SDS011;2470;49.868;8.660;2022-12-11T04:27:51;22.50;;;10.97;;
4909;SDS011;2470;49.868;8.660;2022-12-11T04:30:19;15.30;;;8.20;;
4909;SDS011;2470;49.868;8.660;2022-12-11T04:32:46;21.63;;;8.83;;
4909;SDS011;2470;49.868;8.660;2022-12-11T04:35:12;20.73;;;11.23;;
4909;SDS011;2470;49.868;8.660;2022-12-11T04:37:38;18.33;;;9.03;;
4909;SDS011;2470;49.868;8.660;2022-12-11T04:40:05;13.90;;;10.30;;
4909;SDS011;2470;49.868;8.660;2022-12-11T04:42:32;35.47;;;12.50;;
4909;SDS011;2470;49.868;8.660;2022-12-11T04:44:58;20.37;;;11.13;;
4909;SDS011;2470;49.868;8.660;2022-12-11T04:47:23;35.73;;;10.27;;
4909;SDS011;2470;49.868;8.660;2022-12-11T04:49:49;22.60;;;9.77;;
4909;SDS011;2470;49.868;8.660;2022-12-11T04:52:14;23.13;;;9.00;;
4909;SDS011;2470;49.868;8.660;2022-12-11T04:54:41;40.70;;;11.57;;
4909;SDS011;2470;49.868;8.660;2022-12-11T04:57:06;20.97;;;10.27;;
4909;SDS011;2470;49.868;8.660;2022-12-11T04:59:32;16.33;;;9.13;;
4909;SDS011;2470;49.868;8.660;2022-12-11T05:01:57;25.60;;;11.97;;
4909;SDS011;2470;49.868;8.660;2022-12-11T05:04:23;19.10;;;10.03;;
4909;SDS011;2470;49.868;8.660;2022-12-11T05:06:49;19.47;;;10.50;;
4909;SDS011;2470;49.868;8.660;2022-12-11T05:09:15;16.77;;;10.47;;
4909;SDS011;2470;49.868;8.660;2022-12-11T05:11:40;18.70;;;9.37;;
4909;SDS011;2470;49.868;8.660;2022-12-11T05:14:06;27.70;;;11.33;;
4909;SDS011;2470;49.868;8.660;2022-12-11T05:16:31;23.00;;;10.83;;
4909;SDS011;2470;49.868;8.660;2022-12-11T05:18:57;14.33;;;9.70;;
4909;SDS011;2470;49.868;8.660;2022-12-11T05:21:23;24.63;;;10.83;;
4909;SDS011;2470;49.868;8.660;2022-12-11T05:23:48;23.80;;;8.73;;
4909;SDS011;2470;49.868;8.660;2022-12-11T05:26:15;19.87;;;10.00;;
4909;SDS011;2470;49.868;8.660;2022-12-11T05:28:43;34.17;;;11.33;;
4909;SDS011;2470;49.868;8.660;2022-12-11T05:31:14;14.50;;;7.73;;
4909;SDS011;2470;49.868;8.660;2022-12-11T05:33:44;26.77;;;10.73;;
4909;SDS011;2470;49.868;8.660;2022-12-11T05:36:23;14.40;;;9.53;;
4909;SDS011;2470;49.868;8.660;2022-12-11T05:38:51;22.50;;;7.80;;
4909;SDS011;2470;49.868;8.660;2022-12-11T05:41:19;16.60;;;8.33;;
4909;SDS011;2470;49.868;8.660;2022-12-11T05:43:45;27.43;;;8.77;;
4909;SDS011;2470;49.868;8.660;2022-12-11T05:46:13;15.10;;;8.63;;
4909;SDS011;2470;49.868;8.660;2022-12-11T05:48:41;24.13;;;8.67;;
4909;SDS011;2470;49.868;8.660;2022-12-11T05:51:09;19.70;;;9.70;;
4909;SDS011;2470;49.868;8.660;2022-12-11T05:53:35;18.10;;;8.90;;
4909;SDS011;2470;49.868;8.660;2022-12-11T05:56:21;20.33;;;10.77;;
4909;SDS011;2470;49.868;8.660;2022-12-11T05:58:54;25.90;;;10.10;;
4909;SDS011;2470;49.868;8.660;2022-12-11T06:01:22;17.47;;;9.27;;
4909;SDS011;2470;49.868;8.660;2022-12-11T06:03:59;25.93;;;10.43;;
4909;SDS011;2470;49.868;8.660;2022-12-11T06:06:25;26.13;;;9.70;;
4909;SDS011;2470;49.868;8.660;2022-12-11T06:08:52;26.53;;;10.80;;
4909;SDS011;2470;49.868;8.660;2022-12-11T06:11:19;30.53;;;9.57;;
4909;SDS011;2470;49.868;8.660;2022-12-11T06:13:45;18.10;;;9.90;;
4909;SDS011;2470;49.868;8.660;2022-12-11T06:16:11;20.87;;;9.67;;
4909;SDS011;2470;49.868;8.660;2022-12-11T06:18:37;23.67;;;11.80;;
4909;SDS011;2470;49.868;8.660;2022-12-11T06:23:42;19.70;;;9.63;;
4909;SDS011;2470;49.868;8.660;2022-12-11T06:26:10;23.40;;;11.20;;
4909;SDS011;2470;49.868;8.660;2022-12-11T06:28:36;23.13;;;11.07;;
4909;SDS011;2470;49.868;8.660;2022-12-11T06:31:01;26.13;;;10.20;;
4909;SDS011;2470;49.868;8.660;2022-12-11T06:33:28;23.17;;;10.60;;
4909;SDS011;2470;49.868;8.660;2022-12-11T06:35:54;17.33;;;8.40;;
4909;SDS011;2470;49.868;8.660;2022-12-11T06:38:19;25.33;;;11.97;;
4909;SDS011;2470;49.868;8.660;2022-12-11T06:40:45;18.07;;;10.43;;
4909;SDS011;2470;49.868;8.660;2022-12-11T06:43:17;19.87;;;9.43;;
4909;SDS011;2470;49.868;8.660;2022-12-11T06:45:43;27.27;;;10.07;;
4909;SDS011;2470;49.868;8.660;2022-12-11T06:48:08;20.67;;;11.07;;
4909;SDS011;2470;49.868;8.660;2022-12-11T06:50:34;25.63;;;11.50;;
4909;SDS011;2470;49.868;8.660;2022-12-11T06:53:02;22.50;;;10.37;;
4909;SDS011;2470;49.868;8.660;2022-12-11T06:55:28;21.07;;;9.60;;
4909;SDS011;2470;49.868;8.660;2022-12-11T06:57:53;24.40;;;11.40;;
4909;SDS011;2470;49.868;8.660;2022-12-11T07:00:19;16.13;;;8.60;;
4909;SDS011;2470;49.868;8.660;2022-12-11T07:02:44;18.17;;;9.07;;
4909;SDS011;2470;49.868;8.660;2022-12-11T07:05:10;20.03;;;10.17;;
4909;SDS011;2470;49.868;8.660;2022-12-11T07:07:36;27.37;;;12.07;;
4909;SDS011;2470;49.868;8.660;2022-12-11T07:10:01;20.47;;;9.17;;
4909;SDS011;2470;49.868;8.660;2022-12-11T07:12:27;28.60;;;9.77;;
4909;SDS011;2470;49.868;8.660;2022-12-11T07:14:52;19.33;;;10.43;;
4909;SDS011;2470;49.868;8.660;2022-12-11T07:17:18;19.30;;;9.33;;
4909;SDS011;2470;49.868;8.660;2022-12-11T07:19:43;20.60;;;9.60;;
4909;SDS011;2470;49.868;8.660;2022-12-11T07:22:09;17.27;;;9.30;;
4909;SDS011;2470;49.868;8.660;2022-12-11T07:24:35;19.37;;;10.57;;
4909;SDS011;2470;49.868;8.660;2022-12-11T07:27:00;22.63;;;10.83;;
4909;SDS011;2470;49.868;8.660;2022-12-11T07:29:26;22.77;;;11.80;;
4909;SDS011;2470;49.868;8.660;2022-12-11T07:31:51;30.33;;;12.80;;
4909;SDS011;2470;49.868;8.660;2022-12-11T07:34:17;23.20;;;13.40;;
4909;SDS011;2470;49.868;8.660;2022-12-11T07:36:42;26.17;;;11.07;;
4909;SDS011;2470;49.868;8.660;2022-12-11T07:39:09;22.17;;;13.60;;
4909;SDS011;2470;49.868;8.660;2022-12-11T07:41:36;20.93;;;10.07;;
4909;SDS011;2470;49.868;8.660;2022-12-11T07:44:02;22.87;;;11.80;;
4909;SDS011;2470;49.868;8.660;2022-12-11T07:46:29;23.00;;;10.70;;
4909;SDS011;2470;49.868;8.660;2022-12-11T07:48:55;41.43;;;13.77;;
4909;SDS011;2470;49.868;8.660;2022-12-11T07:51:22;21.30;;;9.07;;
4909;SDS011;2470;49.868;8.660;2022-12-11T07:53:51;18.27;;;11.27;;
4909;SDS011;2470;49.868;8.660;2022-12-11T07:56:21;17.97;;;10.83;;
4909;SDS011;2470;49.868;8.660;2022-12-11T07:58:48;29.17;;;13.00;;
4909;SDS011;2470;49.868;8.660;2022-12-11T08:01:14;25.67;;;12.30;;
4909;SDS011;2470;49.868;8.660;2022-12-11T08:03:45;25.73;;;14.53;;
4909;SDS011;2470;49.868;8.660;2022-12-11T08:06:11;31.60;;;13.17;;
4909;SDS011;2470;49.868;8.660;2022-12-11T08:08:37;31.80;;;11.43;;
4909;SDS011;2470;49.868;8.660;2022-12-11T08:11:04;43.57;;;13.50;;
4909;SDS011;2470;49.868;8.660;2022-12-11T08:13:30;28.67;;;14.20;;
4909;SDS011;2470;49.868;8.660;2022-12-11T08:15:56;25.50;;;13.43;;
4909;SDS011;2470;49.868;8.660;2022-12-11T08:18:22;26.50;;;11.80;;
4909;SDS011;2470;49.868;8.660;2022-12-11T08:20:48;31.97;;;13.77;;
4909;SDS011;2470;49.868;8.660;2022-12-11T08:23:13;34.93;;;14.97;;
4909;SDS011;2470;49.868;8.660;2022-12-11T08:25:39;25.67;;;12.90;;
4909;SDS011;2470;49.868;8.660;2022-12-11T08:28:04;31.57;;;11.63;;
4909;SDS011;2470;49.868;8.660;2022-12-11T08:30:30;35.33;;;15.73;;
4909;SDS011;2470;49.868;8.660;2022-12-11T08:32:55;29.23;;;12.80;;
4909;SDS011;2470;49.868;8.660;2022-12-11T08:35:21;30.13;;;11.97;;
4909;SDS011;2470;49.868;8.660;2022-12-11T08:37:47;20.87;;;13.60;;
4909;SDS011;2470;49.868;8.660;2022-12-11T08:40:12;36.93;;;15.20;;
4909;SDS011;2470;49.868;8.660;2022-12-11T08:42:38;18.73;;;10.30;;
4909;SDS011;2470;49.868;8.660;2022-12-11T08:45:03;24.07;;;12.10;;
4909;SDS011;2470;49.868;8.660;2022-12-11T08:47:30;27.30;;;14.17;;
4909;SDS011;2470;49.868;8.660;2022-12-11T08:49:55;26.63;;;13.90;;
4909;SDS011;2470;49.868;8.660;2022-12-11T08:52:21;25.70;;;11.53;;
4909;SDS011;2470;49.868;8.660;2022-12-11T08:54:47;31.90;;;13.97;;
4909;SDS011;2470;49.868;8.660;2022-12-11T08:57:12;26.50;;;12.10;;
4909;SDS011;2470;49.868;8.660;2022-12-11T08:59:38;24.57;;;13.57;;
4909;SDS011;2470;49.868;8.660;2022-12-11T09:02:03;28.57;;;12.60;;
4909;SDS011;2470;49.868;8.660;2022-12-11T09:04:29;29.23;;;12.67;;
4909;SDS011;2470;49.868;8.660;2022-12-11T09:06:54;27.67;;;11.70;;
4909;SDS011;2470;49.868;8.660;2022-12-11T09:09:20;22.33;;;10.70;;
4909;SDS011;2470;49.868;8.660;2022-12-11T09:11:46;26.70;;;10.80;;
4909;SDS011;2470;49.868;8.660;2022-12-11T09:14:11;26.37;;;11.87;;
4909;SDS011;2470;49.868;8.660;2022-12-11T09:16:38;24.23;;;11.90;;
4909;SDS011;2470;49.868;8.660;2022-12-11T09:19:05;24.93;;;10.57;;
4909;SDS011;2470;49.868;8.660;2022-12-11T09:21:31;29.53;;;12.53;;
4909;SDS011;2470;49.868;8.660;2022-12-11T09:23:58;24.57;;;12.57;;
4909;SDS011;2470;49.868;8.660;2022-12-11T09:26:25;33.20;;;12.50;;
4909;SDS011;2470;49.868;8.660;2022-12-11T09:28:51;33.07;;;13.57;;
4909;SDS011;2470;49.868;8.660;2022-12-11T09:31:19;27.20;;;13.60;;
4909;SDS011;2470;49.868;8.660;2022-12-11T09:33:49;33.57;;;13.77;;
4909;SDS011;2470;49.868;8.660;2022-12-11T09:36:16;36.63;;;15.07;;
4909;SDS011;2470;49.868;8.660;2022-12-11T09:38:42;27.50;;;14.70;;
4909;SDS011;2470;49.868;8.660;2022-12-11T09:41:20;34.83;;;13.87;;
4909;SDS011;2470;49.868;8.660;2022-12-11T09:44:15;33.13;;;13.17;;
4909;SDS011;2470;49.868;8.660;2022-12-11T09:46:56;25.67;;;11.77;;
4909;SDS011;2470;49.868;8.660;2022-12-11T09:49:38;33.77;;;12.97;;
4909;SDS011;2470;49.868;8.660;2022-12-11T09:54:48;29.13;;;12.33;;
4909;SDS011;2470;49.868;8.660;2022-12-11T09:57:22;25.20;;;11.90;;
4909;SDS011;2470;49.868;8.660;2022-12-11T10:02:40;21.17;;;10.73;;
4909;SDS011;2470;49.868;8.660;2022-12-11T10:05:41;32.33;;;13.90;;
4909;SDS011;2470;49.868;8.660;2022-12-11T10:16:58;31.00;;;14.23;;
4909;SDS011;2470;49.868;8.660;2022-12-11T10:19:29;37.13;;;16.23;;
4909;SDS011;2470;49.868;8.660;2022-12-11T10:21:56;25.77;;;13.17;;
4909;SDS011;2470;49.868;8.660;2022-12-11T10:24:25;46.27;;;14.57;;
4909;SDS011;2470;49.868;8.660;2022-12-11T10:26:58;30.23;;;13.03;;
4909;SDS011;2470;49.868;8.660;2022-12-11T10:29:36;26.63;;;13.07;;
4909;SDS011;2470;49.868;8.660;2022-12-11T10:32:01;31.57;;;13.60;;
4909;SDS011;2470;49.868;8.660;2022-12-11T10:34:32;40.77;;;16.00;;
4909;SDS011;2470;49.868;8.660;2022-12-11T10:36:59;38.67;;;15.20;;
4909;SDS011;2470;49.868;8.660;2022-12-11T10:39:25;29.03;;;16.10;;
4909;SDS011;2470;49.868;8.660;2022-12-11T10:41:51;39.43;;;14.53;;
4909;SDS011;2470;49.868;8.660;2022-12-11T10:44:28;35.70;;;14.50;;
4909;SDS011;2470;49.868;8.660;2022-12-11T10:49:27;37.23;;;15.00;;
4909;SDS011;2470;49.868;8.660;2022-12-11T10:51:54;36.20;;;14.93;;
4909;SDS011;2470;49.868;8.660;2022-12-11T10:55:23;28.37;;;13.47;;
4909;SDS011;2470;49.868;8.660;2022-12-11T10:57:31;31.83;;;13.83;;
4909;SDS011;2470;49.868;8.660;2022-12-11T10:59:59;36.93;;;15.93;;
4909;SDS011;2470;49.868;8.660;2022-12-11T11:02:37;36.27;;;14.30;;
4909;SDS011;2470;49.868;8.660;2022-12-11T11:05:14;29.10;;;12.90;;
4909;SDS011;2470;49.868;8.660;2022-12-11T11:07:42;44.03;;;15.07;;
4909;SDS011;2470;49.868;8.660;2022-12-11T11:12:40;41.37;;;14.87;;
4909;SDS011;2470;49.868;8.660;2022-12-11T11:15:11;22.40;;;10.97;;
4909;SDS011;2470;49.868;8.660;2022-12-11T11:20:46;29.27;;;12.77;;
4909;SDS011;2470;49.868;8.660;2022-12-11T11:23:13;34.83;;;13.03;;
4909;SDS011;2470;49.868;8.660;2022-12-11T11:25:46;33.23;;;15.10;;
4909;SDS011;2470;49.868;8.660;2022-12-11T11:28:35;29.50;;;12.23;;
4909;SDS011;2470;49.868;8.660;2022-12-11T11:31:07;28.37;;;13.70;;
4909;SDS011;2470;49.868;8.660;2022-12-11T11:33:36;29.63;;;13.03;;
4909;SDS011;2470;49.868;8.660;2022-12-11T11:36:25;33.70;;;11.53;;
4909;SDS011;2470;49.868;8.660;2022-12-11T11:41:28;34.13;;;12.70;;
4909;SDS011;2470;49.868;8.660;2022-12-11T11:44:08;37.23;;;12.60;;
4909;SDS011;2470;49.868;8.660;2022-12-11T11:49:34;27.30;;;13.10;;
4909;SDS011;2470;49.868;8.660;2022-12-11T11:52:14;40.40;;;14.60;;
4909;SDS011;2470;49.868;8.660;2022-12-11T11:55:00;34.90;;;12.97;;
4909;SDS011;2470;49.868;8.660;2022-12-11T12:00:19;29.97;;;14.20;;
4909;SDS011;2470;49.868;8.660;2022-12-11T12:02:50;25.00;;;11.90;;
4909;SDS011;2470;49.868;8.660;2022-12-11T12:05:29;29.63;;;13.53;;
4909;SDS011;2470;49.868;8.660;2022-12-11T12:17:05;31.20;;;13.20;;
4909;SDS011;2470;49.868;8.660;2022-12-11T12:22:02;23.80;;;12.10;;
4909;SDS011;2470;49.868;8.660;2022-12-11T12:24:48;28.30;;;12.70;;
4909;SDS011;2470;49.868;8.660;2022-12-11T12:27:28;24.27;;;12.07;;
4909;SDS011;2470;49.868;8.660;2022-12-11T12:30:16;33.30;;;15.67;;
4909;SDS011;2470;49.868;8.660;2022-12-11T12:39:10;34.60;;;13.00;;
4909;SDS011;2470;49.868;8.660;2022-12-11T12:44:17;32.53;;;13.83;;
4909;SDS011;2470;49.868;8.660;2022-12-11T12:49:39;32.77;;;12.70;;
4909;SDS011;2470;49.868;8.660;2022-12-11T12:52:15;33.57;;;13.50;;
4909;SDS011;2470;49.868;8.660;2022-12-11T12:54:45;25.23;;;12.53;;
4909;SDS011;2470;49.868;8.660;2022-12-11T12:57:33;38.20;;;14.47;;
4909;SDS011;2470;49.868;8.660;2022-12-11T12:59:59;26.77;;;12.50;;
4909;SDS011;2470;49.868;8.660;2022-12-11T13:02:25;30.70;;;12.87;;
4909;SDS011;2470;49.868;8.660;2022-12-11T13:04:55;33.07;;;14.20;;
4909;SDS011;2470;49.868;8.660;2022-12-11T13:07:25;33.87;;;13.67;;
4909;SDS011;2470;49.868;8.660;2022-12-11T13:12:44;30.70;;;15.03;;
4909;SDS011;2470;49.868;8.660;2022-12-11T13:17:58;30.10;;;13.70;;
4909;SDS011;2470;49.868;8.660;2022-12-11T13:20:26;43.97;;;12.43;;
4909;SDS011;2470;49.868;8.660;2022-12-11T13:22:55;33.17;;;12.13;;
4909;SDS011;2470;49.868;8.660;2022-12-11T13:28:26;35.27;;;16.97;;
4909;SDS011;2470;49.868;8.660;2022-12-11T13:31:02;40.37;;;12.20;;
4909;SDS011;2470;49.868;8.660;2022-12-11T13:33:40;27.13;;;15.13;;
4909;SDS011;2470;49.868;8.660;2022-12-11T13:38:38;31.23;;;14.03;;
4909;SDS011;2470;49.868;8.660;2022-12-11T13:41:10;28.70;;;13.10;;
4909;SDS011;2470;49.868;8.660;2022-12-11T13:43:37;39.93;;;13.30;;
4909;SDS011;2470;49.868;8.660;2022-12-11T13:46:04;31.90;;;13.40;;
4909;SDS011;2470;49.868;8.660;2022-12-11T13:48:35;37.60;;;14.03;;
4909;SDS011;2470;49.868;8.660;2022-12-11T13:51:03;44.40;;;15.30;;
4909;SDS011;2470;49.868;8.660;2022-12-11T13:53:30;34.97;;;14.33;;
4909;SDS011;2470;49.868;8.660;2022-12-11T13:55:57;37.83;;;13.73;;
4909;SDS011;2470;49.868;8.660;2022-12-11T13:58:25;43.27;;;15.13;;
4909;SDS011;2470;49.868;8.660;2022-12-11T14:00:52;24.43;;;12.57;;
4909;SDS011;2470;49.868;8.660;2022-12-11T14:03:24;38.90;;;16.57;;
4909;SDS011;2470;49.868;8.660;2022-12-11T14:05:50;38.57;;;12.70;;
4909;SDS011;2470;49.868;8.660;2022-12-11T14:08:16;34.83;;;14.50;;
4909;SDS011;2470;49.868;8.660;2022-12-11T14:10:49;35.73;;;13.90;;
4909;SDS011;2470;49.868;8.660;2022-12-11T14:13:19;35.37;;;15.37;;
4909;SDS011;2470;49.868;8.660;2022-12-11T14:15:49;36.47;;;12.70;;
4909;SDS011;2470;49.868;8.660;2022-12-11T14:18:17;32.37;;;13.27;;
4909;SDS011;2470;49.868;8.660;2022-12-11T14:20:51;33.50;;;12.97;;
4909;SDS011;2470;49.868;8.660;2022-12-11T14:23:20;35.50;;;13.07;;
4909;SDS011;2470;49.868;8.660;2022-12-11T14:26:01;29.30;;;12.20;;
4909;SDS011;2470;49.868;8.660;2022-12-11T14:28:28;36.13;;;14.20;;
4909;SDS011;2470;49.868;8.660;2022-12-11T14:31:00;21.67;;;9.53;;
4909;SDS011;2470;49.868;8.660;2022-12-11T14:33:29;31.63;;;14.27;;
4909;SDS011;2470;49.868;8.660;2022-12-11T14:35:57;24.50;;;12.80;;
4909;SDS011;2470;49.868;8.660;2022-12-11T14:38:27;23.23;;;11.10;;
4909;SDS011;2470;49.868;8.660;2022-12-11T14:40:58;27.73;;;11.73;;
4909;SDS011;2470;49.868;8.660;2022-12-11T14:43:33;21.73;;;11.33;;
4909;SDS011;2470;49.868;8.660;2022-12-11T14:46:02;30.93;;;14.07;;
4909;SDS011;2470;49.868;8.660;2022-12-11T14:48:41;28.50;;;12.90;;
4909;SDS011;2470;49.868;8.660;2022-12-11T14:51:15;32.63;;;13.20;;
4909;SDS011;2470;49.868;8.660;2022-12-11T14:53:43;36.47;;;12.50;;
4909;SDS011;2470;49.868;8.660;2022-12-11T14:56:17;36.50;;;16.57;;
4909;SDS011;2470;49.868;8.660;2022-12-11T14:58:52;25.23;;;13.27;;
4909;SDS011;2470;49.868;8.660;2022-12-11T15:01:27;27.63;;;11.70;;
4909;SDS011;2470;49.868;8.660;2022-12-11T15:04:39;28.70;;;12.47;;
4909;SDS011;2470;49.868;8.660;2022-12-11T15:06:48;27.97;;;12.27;;
4909;SDS011;2470;49.868;8.660;2022-12-11T15:09:25;25.90;;;11.43;;
4909;SDS011;2470;49.868;8.660;2022-12-11T15:11:54;35.77;;;12.40;;
4909;SDS011;2470;49.868;8.660;2022-12-11T15:14:23;37.80;;;13.90;;
4909;SDS011;2470;49.868;8.660;2022-12-11T15:16:49;26.40;;;11.47;;
4909;SDS011;2470;49.868;8.660;2022-12-11T15:19:19;27.37;;;12.60;;
4909;SDS011;2470;49.868;8.660;2022-12-11T15:21:51;23.50;;;10.60;;
4909;SDS011;2470;49.868;8.660;2022-12-11T15:24:21;27.00;;;11.70;;
4909;SDS011;2470;49.868;8.660;2022-12-11T15:26:57;22.80;;;11.87;;
4909;SDS011;2470;49.868;8.660;2022-12-11T15:29:35;34.80;;;12.90;;
4909;SDS011;2470;49.868;8.660;2022-12-11T15:34:34;29.53;;;13.83;;
4909;SDS011;2470;49.868;8.660;2022-12-11T15:37:19;25.53;;;11.67;;
4909;SDS011;2470;49.868;8.660;2022-12-11T15:39:56;23.23;;;11.30;;
4909;SDS011;2470;49.868;8.660;2022-12-11T15:42:28;44.40;;;14.43;;
4909;SDS011;2470;49.868;8.660;2022-12-11T15:45:05;33.83;;;13.20;;
4909;SDS011;2470;49.868;8.660;2022-12-11T15:47:32;37.00;;;15.97;;
4909;SDS011;2470;49.868;8.660;2022-12-11T15:49:59;37.13;;;16.30;;
4909;SDS011;2470;49.868;8.660;2022-12-11T15:52:26;37.83;;;14.17;;
4909;SDS011;2470;49.868;8.660;2022-12-11T15:54:52;29.20;;;12.50;;
4909;SDS011;2470;49.868;8.660;2022-12-11T15:57:19;30.30;;;16.13;;
4909;SDS011;2470;49.868;8.660;2022-12-11T15:59:47;38.30;;;16.03;;
4909;SDS011;2470;49.868;8.660;2022-12-11T16:02:15;33.37;;;14.40;;
4909;SDS011;2470;49.868;8.660;2022-12-11T16:04:41;45.83;;;15.50;;
4909;SDS011;2470;49.868;8.660;2022-12-11T16:07:12;27.43;;;10.60;;
4909;SDS011;2470;49.868;8.660;2022-12-11T16:09:40;24.27;;;12.67;;
4909;SDS011;2470;49.868;8.660;2022-12-11T16:12:06;47.27;;;12.90;;
4909;SDS011;2470;49.868;8.660;2022-12-11T16:14:31;32.10;;;12.20;;
4909;SDS011;2470;49.868;8.660;2022-12-11T16:16:57;25.67;;;12.93;;
4909;SDS011;2470;49.868;8.660;2022-12-11T16:19:22;38.70;;;13.67;;
4909;SDS011;2470;49.868;8.660;2022-12-11T16:21:48;27.23;;;12.47;;
4909;SDS011;2470;49.868;8.660;2022-12-11T16:24:13;35.40;;;14.47;;
4909;SDS011;2470;49.868;8.660;2022-12-11T16:26:39;26.50;;;13.97;;